createdAt,value
2017-12-03T00:01:38.253Z,0.00
2017-12-03T00:04:05.946Z,0.00
2017-12-03T00:06:34.470Z,0.20
2017-12-03T00:09:02.035Z,0.20
2017-12-03T00:11:29.634Z,0.20
2017-12-03T00:13:57.322Z,0.20
2017-12-03T00:16:24.886Z,0.20
2017-12-03T00:18:52.483Z,0.20
2017-12-03T00:21:20.059Z,0.20
2017-12-03T00:23:47.694Z,-0.20
2017-12-03T00:26:15.263Z,-0.30
2017-12-03T00:28:42.851Z,-0.40
2017-12-03T00:31:11.255Z,-0.10
2017-12-03T00:33:38.900Z,-0.10
2017-12-03T00:36:07.267Z,0.10
2017-12-03T00:38:34.845Z,0.10
2017-12-03T00:41:03.282Z,0.00
2017-12-03T00:43:30.878Z,0.00
2017-12-03T00:45:59.219Z,0.10
2017-12-03T00:48:26.811Z,0.10
2017-12-03T00:50:55.154Z,0.20
2017-12-03T00:53:22.741Z,0.10
2017-12-03T00:55:51.202Z,0.00
2017-12-03T00:58:18.772Z,0.00
2017-12-03T01:00:46.395Z,-0.20
2017-12-03T01:03:14.001Z,-0.10
2017-12-03T01:05:42.332Z,0.10
2017-12-03T01:08:09.959Z,0.10
2017-12-03T01:10:37.575Z,0.10
2017-12-03T01:13:05.903Z,0.10
2017-12-03T01:15:33.493Z,0.00
2017-12-03T01:18:01.079Z,-0.10
2017-12-03T01:20:29.557Z,-0.10
2017-12-03T01:22:57.219Z,-0.10
2017-12-03T01:25:24.817Z,-0.10
2017-12-03T01:27:52.411Z,0.10
2017-12-03T01:30:19.971Z,0.00
2017-12-03T01:32:47.544Z,0.00
2017-12-03T01:35:15.127Z,0.00
2017-12-03T01:37:43.459Z,-0.30
2017-12-03T01:40:11.043Z,-0.30
2017-12-03T01:42:39.387Z,-0.10
2017-12-03T01:45:06.986Z,-0.10
2017-12-03T01:47:35.310Z,-0.20
2017-12-03T01:50:02.904Z,-0.20
2017-12-03T01:52:30.496Z,-0.20
2017-12-03T01:54:58.823Z,-0.20
2017-12-03T01:57:26.496Z,-0.20
2017-12-03T01:59:54.060Z,-0.20
2017-12-03T02:02:21.669Z,-0.20
2017-12-03T02:04:49.218Z,-0.20
2017-12-03T02:07:16.789Z,-0.20
2017-12-03T02:09:44.371Z,-0.20
2017-12-03T02:12:11.966Z,-0.20
2017-12-03T02:14:39.571Z,-0.20
2017-12-03T02:17:07.137Z,-0.20
2017-12-03T02:19:34.703Z,-0.20
2017-12-03T02:22:02.313Z,-0.20
2017-12-03T02:24:30.739Z,-0.10
2017-12-03T02:26:58.310Z,-0.20
2017-12-03T02:29:25.891Z,-0.10
2017-12-03T02:31:53.484Z,0.00
2017-12-03T02:34:21.053Z,0.00
2017-12-03T02:36:48.644Z,-0.10
2017-12-03T02:39:16.241Z,0.00
2017-12-03T02:41:44.573Z,-0.10
2017-12-03T02:44:12.180Z,-0.10
2017-12-03T02:46:40.571Z,-0.10
2017-12-03T02:49:08.140Z,-0.10
2017-12-03T02:51:35.755Z,-0.10
2017-12-03T02:54:03.332Z,-0.10
2017-12-03T02:56:31.666Z,-0.10
2017-12-03T02:58:59.262Z,-0.10
2017-12-03T03:01:27.587Z,-0.10
2017-12-03T03:03:55.191Z,-0.10
2017-12-03T03:06:22.748Z,0.00
2017-12-03T03:08:50.303Z,0.10
2017-12-03T03:11:17.903Z,0.10
2017-12-03T03:13:45.487Z,0.10
2017-12-03T03:16:13.091Z,-0.10
2017-12-03T03:18:41.415Z,0.10
2017-12-03T03:21:09.067Z,0.00
2017-12-03T03:23:36.635Z,0.00
2017-12-03T03:26:04.205Z,0.00
2017-12-03T03:28:31.783Z,0.00
2017-12-03T03:30:59.361Z,-0.10
2017-12-03T03:33:26.959Z,-0.10
2017-12-03T03:35:54.519Z,-0.10
2017-12-03T03:38:22.089Z,-0.20
2017-12-03T03:40:49.703Z,-0.10
2017-12-03T03:43:18.173Z,-0.30
2017-12-03T03:45:46.556Z,-0.20
2017-12-03T03:48:14.911Z,-0.20
2017-12-03T03:50:42.646Z,-0.20
2017-12-03T03:53:10.351Z,-0.10
2017-12-03T03:55:38.700Z,-0.20
2017-12-03T03:58:06.315Z,-0.20
2017-12-03T04:00:33.884Z,-0.20
2017-12-03T04:03:01.447Z,-0.10
2017-12-03T04:05:29.047Z,-0.10
2017-12-03T04:07:56.647Z,-0.10
2017-12-03T04:10:24.249Z,0.00
2017-12-03T04:12:51.911Z,0.00
2017-12-03T04:15:19.503Z,0.00
2017-12-03T04:17:47.852Z,0.00
2017-12-03T04:20:15.448Z,-0.10
2017-12-03T04:22:43.919Z,0.00
2017-12-03T04:25:12.284Z,0.00
2017-12-03T04:27:39.835Z,0.00
2017-12-03T04:30:07.390Z,0.00
2017-12-03T04:32:34.983Z,-0.10
2017-12-03T04:35:03.303Z,-0.10
2017-12-03T04:37:30.898Z,-0.10
2017-12-03T04:39:58.486Z,-0.10
2017-12-03T04:42:26.310Z,-0.10
2017-12-03T04:44:53.910Z,-0.10
2017-12-03T04:47:21.475Z,-0.10
2017-12-03T04:49:49.031Z,-0.10
2017-12-03T04:52:16.623Z,-0.10
2017-12-03T04:54:44.196Z,-0.20
2017-12-03T04:57:11.783Z,-0.10
2017-12-03T04:59:40.142Z,0.00
2017-12-03T05:02:07.758Z,0.00
2017-12-03T05:04:36.199Z,-0.10
2017-12-03T05:07:03.767Z,0.00
2017-12-03T05:09:32.123Z,-0.10
2017-12-03T05:11:59.719Z,-0.10
2017-12-03T05:14:27.314Z,-0.10
2017-12-03T05:16:54.871Z,-0.20
2017-12-03T05:19:22.427Z,-0.20
2017-12-03T05:21:50.098Z,-0.20
2017-12-03T05:24:17.687Z,-0.20
2017-12-03T05:26:46.022Z,-0.20
2017-12-03T05:29:13.619Z,-0.20
2017-12-03T05:31:41.963Z,-0.10
2017-12-03T05:34:09.577Z,-0.20
2017-12-03T05:36:37.165Z,-0.20
2017-12-03T05:39:04.718Z,-0.20
2017-12-03T05:41:32.311Z,-0.20
2017-12-03T05:43:59.928Z,-0.20
2017-12-03T05:46:27.532Z,-0.20
2017-12-03T05:48:55.106Z,-0.20
2017-12-03T05:51:22.678Z,-0.10
2017-12-03T05:53:51.176Z,-0.10
2017-12-03T05:56:18.747Z,-0.10
2017-12-03T05:58:46.405Z,-0.20
2017-12-03T06:01:14.100Z,-0.20
2017-12-03T06:03:41.675Z,-0.20
2017-12-03T06:06:09.255Z,-0.20
2017-12-03T06:08:37.607Z,-0.10
2017-12-03T06:11:05.171Z,-0.10
2017-12-03T06:13:32.772Z,-0.20
2017-12-03T06:16:00.391Z,-0.20
2017-12-03T06:18:28.047Z,-0.30
2017-12-03T06:20:55.611Z,-0.30
2017-12-03T06:23:23.166Z,-0.20
2017-12-03T06:25:50.771Z,-0.20
2017-12-03T06:28:18.334Z,-0.20
2017-12-03T06:30:45.990Z,-0.20
2017-12-03T06:33:13.549Z,-0.20
2017-12-03T06:35:41.107Z,-0.20
2017-12-03T06:38:08.746Z,-0.20
2017-12-03T06:40:36.316Z,-0.30
2017-12-03T06:43:03.918Z,-0.30
2017-12-03T06:45:31.494Z,-0.30
2017-12-03T06:47:59.200Z,-0.20
2017-12-03T06:50:26.791Z,-0.20
2017-12-03T06:52:54.379Z,-0.20
2017-12-03T06:55:21.989Z,-0.30
2017-12-03T06:57:49.563Z,-0.30
2017-12-03T07:00:17.215Z,-0.30
2017-12-03T07:02:44.799Z,-0.30
2017-12-03T07:05:12.395Z,-0.30
2017-12-03T07:07:40.771Z,-0.30
2017-12-03T07:10:09.147Z,-0.20
2017-12-03T07:12:37.551Z,-0.20
2017-12-03T07:15:05.144Z,-0.20
2017-12-03T07:17:32.726Z,-0.20
2017-12-03T07:20:00.324Z,-0.20
2017-12-03T07:22:27.889Z,-0.20
2017-12-03T07:24:55.503Z,-0.20
2017-12-03T07:27:23.063Z,-0.30
2017-12-03T07:29:50.616Z,-0.30
2017-12-03T07:32:18.230Z,-0.30
2017-12-03T07:34:45.880Z,-0.50
2017-12-03T07:37:13.444Z,-0.30
2017-12-03T07:39:41.043Z,-0.20
2017-12-03T07:42:08.609Z,-0.10
2017-12-03T07:44:36.199Z,-0.20
2017-12-03T07:47:03.764Z,-0.10
2017-12-03T07:49:31.330Z,0.00
2017-12-03T07:51:58.907Z,0.00
2017-12-03T07:54:26.491Z,0.10
2017-12-03T07:56:54.090Z,-0.10
2017-12-03T07:59:21.652Z,-0.30
2017-12-03T08:01:49.355Z,-0.10
2017-12-03T08:04:16.907Z,-0.10
2017-12-03T08:06:44.653Z,-0.10
2017-12-03T08:09:12.284Z,0.00
2017-12-03T08:11:40.602Z,0.10
2017-12-03T08:14:08.184Z,0.10
2017-12-03T08:16:35.818Z,0.20
2017-12-03T08:19:03.423Z,0.20
2017-12-03T08:21:31.018Z,0.20
2017-12-03T08:23:58.599Z,1.50
2017-12-03T08:26:26.292Z,0.10
2017-12-03T08:28:53.872Z,0.00
2017-12-03T08:31:22.408Z,0.20
2017-12-03T08:33:49.959Z,0.20
2017-12-03T08:36:17.506Z,0.20
2017-12-03T08:38:45.083Z,0.20
2017-12-03T08:41:12.647Z,0.20
2017-12-03T08:43:40.259Z,0.30
2017-12-03T08:46:07.811Z,0.40
2017-12-03T08:48:36.219Z,0.50
2017-12-03T08:51:03.847Z,0.40
2017-12-03T08:53:32.187Z,0.30
2017-12-03T08:55:59.771Z,0.20
2017-12-03T08:58:28.088Z,0.30
2017-12-03T09:00:55.740Z,0.30
2017-12-03T09:03:23.405Z,0.20
2017-12-03T09:05:51.069Z,0.30
2017-12-03T09:08:18.658Z,0.20
2017-12-03T09:10:46.223Z,0.20
2017-12-03T09:13:13.811Z,0.20
2017-12-03T09:15:42.193Z,0.40
2017-12-03T09:18:10.514Z,0.30
2017-12-03T09:20:38.088Z,0.30
2017-12-03T09:23:05.683Z,0.40
2017-12-03T09:25:34.016Z,0.20
2017-12-03T09:28:01.677Z,0.20
2017-12-03T09:30:29.359Z,0.20
2017-12-03T09:32:56.935Z,0.20
2017-12-03T09:35:25.287Z,0.40
2017-12-03T09:37:52.852Z,0.40
2017-12-03T09:40:20.460Z,0.60
2017-12-03T09:42:48.052Z,0.40
2017-12-03T09:45:15.628Z,0.40
2017-12-03T09:47:43.240Z,0.60
2017-12-03T09:50:10.815Z,0.80
2017-12-03T09:52:38.660Z,0.70
2017-12-03T09:55:06.251Z,0.80
2017-12-03T09:57:33.815Z,0.70
2017-12-03T10:00:01.405Z,0.70
2017-12-03T10:02:29.744Z,0.90
2017-12-03T10:04:57.320Z,0.90
2017-12-03T10:07:25.046Z,0.70
2017-12-03T10:09:52.728Z,0.60
2017-12-03T10:12:20.331Z,0.60
2017-12-03T10:14:48.682Z,0.90
2017-12-03T10:17:16.239Z,0.90
2017-12-03T10:19:44.668Z,0.80
2017-12-03T10:22:12.251Z,0.80
2017-12-03T10:24:39.848Z,0.80
2017-12-03T10:27:08.266Z,0.90
2017-12-03T10:29:35.926Z,0.90
2017-12-03T10:32:03.534Z,1.00
2017-12-03T10:34:31.127Z,1.00
2017-12-03T10:36:58.804Z,0.70
2017-12-03T10:39:26.466Z,0.80
2017-12-03T10:41:54.167Z,0.90
2017-12-03T10:44:21.959Z,0.90
2017-12-03T10:46:50.490Z,1.30
2017-12-03T10:49:18.059Z,1.30
2017-12-03T10:51:45.765Z,1.10
2017-12-03T10:54:13.487Z,1.30
2017-12-03T10:56:41.116Z,1.20
2017-12-03T10:59:08.795Z,1.40
2017-12-03T11:01:36.416Z,1.50
2017-12-03T11:04:04.044Z,1.30
2017-12-03T11:06:31.625Z,1.40
2017-12-03T11:09:00.031Z,1.10
2017-12-03T11:11:27.601Z,1.10
2017-12-03T11:13:55.271Z,1.00
2017-12-03T11:16:22.858Z,1.10
2017-12-03T11:18:50.436Z,1.20
2017-12-03T11:21:18.846Z,1.10
2017-12-03T11:23:46.431Z,1.10
2017-12-03T11:26:14.079Z,1.20
2017-12-03T11:28:41.755Z,1.30
2017-12-03T11:31:09.325Z,1.30
2017-12-03T11:33:37.054Z,1.20
2017-12-03T11:36:04.638Z,0.90
2017-12-03T11:38:32.264Z,0.90
2017-12-03T11:40:59.856Z,1.10
2017-12-03T11:43:27.464Z,0.90
2017-12-03T11:45:55.080Z,1.10
2017-12-03T11:48:22.635Z,1.20
2017-12-03T11:50:50.270Z,1.20
2017-12-03T11:53:17.847Z,1.20
2017-12-03T11:55:45.425Z,1.00
2017-12-03T11:58:13.044Z,1.00
2017-12-03T12:00:40.622Z,0.90
2017-12-03T12:03:08.233Z,0.90
2017-12-03T12:05:36.787Z,1.10
2017-12-03T12:08:04.363Z,1.10
2017-12-03T12:10:32.810Z,1.20
2017-12-03T12:13:00.508Z,1.20
2017-12-03T12:15:28.931Z,1.00
2017-12-03T12:17:56.544Z,1.00
2017-12-03T12:20:24.887Z,0.90
2017-12-03T12:22:52.572Z,0.90
2017-12-03T12:25:20.913Z,1.10
2017-12-03T12:27:48.547Z,1.10
2017-12-03T12:30:16.124Z,1.20
2017-12-03T12:32:43.700Z,1.10
2017-12-03T12:35:11.296Z,0.90
2017-12-03T12:37:39.630Z,0.60
2017-12-03T12:40:07.207Z,0.60
2017-12-03T12:42:34.828Z,0.80
2017-12-03T12:45:02.417Z,1.00
2017-12-03T12:47:30.025Z,0.90
2017-12-03T12:49:57.583Z,0.90
2017-12-03T12:52:25.298Z,0.80
2017-12-03T12:54:52.919Z,0.80
2017-12-03T12:57:20.579Z,0.80
2017-12-03T12:59:48.215Z,0.70
2017-12-03T13:02:16.689Z,0.70
2017-12-03T13:04:45.058Z,0.40
2017-12-03T13:07:12.624Z,0.40
2017-12-03T13:09:40.985Z,0.70
2017-12-03T13:12:08.581Z,0.70
2017-12-03T13:14:36.164Z,0.60
2017-12-03T13:17:03.767Z,0.70
2017-12-03T13:19:31.392Z,0.40
2017-12-03T13:21:59.004Z,0.30
2017-12-03T13:24:27.412Z,0.20
2017-12-03T13:26:55.014Z,0.20
2017-12-03T13:29:22.595Z,0.00
2017-12-03T13:31:51.001Z,-0.10
2017-12-03T13:34:18.663Z,-0.10
2017-12-03T13:36:46.232Z,0.00
2017-12-03T13:39:13.829Z,0.00
2017-12-03T13:41:41.440Z,-0.10
2017-12-03T13:44:09.035Z,0.10
2017-12-03T13:46:36.599Z,-0.10
2017-12-03T13:49:04.191Z,-0.20
2017-12-03T13:51:32.548Z,-0.10
2017-12-03T13:54:00.131Z,-0.10
2017-12-03T13:56:28.500Z,-0.20
2017-12-03T13:58:56.827Z,-0.20
2017-12-03T14:01:24.444Z,-0.20
2017-12-03T14:03:52.806Z,-0.30
2017-12-03T14:06:21.196Z,-0.30
2017-12-03T14:08:49.806Z,-0.20
2017-12-03T14:11:17.375Z,-0.30
2017-12-03T14:13:45.025Z,-0.40
2017-12-03T14:16:12.672Z,-0.30
2017-12-03T14:18:40.241Z,-0.20
2017-12-03T14:21:07.862Z,-0.40
2017-12-03T14:23:36.223Z,-0.40
2017-12-03T14:26:03.829Z,-0.40
2017-12-03T14:28:31.464Z,-0.60
2017-12-03T14:30:59.807Z,-0.60
2017-12-03T14:33:27.434Z,-0.60
2017-12-03T14:35:55.004Z,-0.60
2017-12-03T14:38:22.603Z,-0.60
2017-12-03T14:40:50.146Z,-0.60
2017-12-03T14:43:17.765Z,-0.60
2017-12-03T14:45:45.332Z,-0.60
2017-12-03T14:48:13.111Z,-0.60
2017-12-03T14:50:40.723Z,-0.60
2017-12-03T14:53:09.064Z,-0.60
2017-12-03T14:55:36.929Z,-0.60
2017-12-03T14:58:04.640Z,-0.60
2017-12-03T15:00:32.218Z,-0.60
2017-12-03T15:02:59.817Z,-0.60
2017-12-03T15:05:28.960Z,-0.60
2017-12-03T15:07:56.528Z,-0.60
2017-12-03T15:10:24.107Z,-0.60
2017-12-03T15:12:51.712Z,-0.70
2017-12-03T15:15:20.143Z,-0.60
2017-12-03T15:17:47.829Z,-0.60
2017-12-03T15:20:15.435Z,-0.60
2017-12-03T15:22:43.118Z,-0.60
2017-12-03T15:25:12.378Z,-0.50
2017-12-03T15:27:40.782Z,-0.50
2017-12-03T15:30:08.370Z,-0.50
2017-12-03T15:32:35.958Z,-0.50
2017-12-03T15:35:04.340Z,-0.50
2017-12-03T15:37:32.706Z,-0.40
2017-12-03T15:40:00.335Z,-0.50
2017-12-03T15:42:28.081Z,-0.50
2017-12-03T15:44:55.641Z,-0.50
2017-12-03T15:47:23.290Z,-0.50
2017-12-03T15:49:50.868Z,-0.50
2017-12-03T15:52:18.451Z,-0.40
2017-12-03T15:54:46.170Z,-0.30
2017-12-03T15:57:13.744Z,-0.30
2017-12-03T15:59:41.351Z,-0.40
2017-12-03T16:02:08.947Z,-0.40
2017-12-03T16:04:36.563Z,-0.40
2017-12-03T16:07:04.179Z,-0.40
2017-12-03T16:09:31.749Z,-0.30
2017-12-03T16:11:59.380Z,-0.30
2017-12-03T16:14:26.956Z,-0.40
2017-12-03T16:16:54.528Z,-0.30
2017-12-03T16:19:22.124Z,-0.30
2017-12-03T16:21:50.495Z,-0.30
2017-12-03T16:24:18.116Z,-0.30
2017-12-03T16:26:45.709Z,-0.30
2017-12-03T16:29:14.807Z,-0.40
2017-12-03T16:31:42.430Z,-0.40
2017-12-03T16:34:10.004Z,-0.40
2017-12-03T16:36:37.578Z,-0.40
2017-12-03T16:39:05.209Z,-0.40
2017-12-03T16:41:32.822Z,-0.30
2017-12-03T16:44:01.260Z,-0.40
2017-12-03T16:46:28.996Z,-0.40
2017-12-03T16:48:56.548Z,-0.40
2017-12-03T16:51:24.160Z,-0.30
2017-12-03T16:53:51.747Z,-0.30
2017-12-03T16:56:19.629Z,-0.20
2017-12-03T16:58:47.213Z,-0.20
2017-12-03T17:01:14.786Z,-0.30
2017-12-03T17:03:42.385Z,-0.30
2017-12-03T17:06:10.821Z,-0.10
2017-12-03T17:08:38.425Z,-0.10
2017-12-03T17:11:06.781Z,-0.10
2017-12-03T17:13:34.385Z,-0.10
2017-12-03T17:16:01.971Z,-0.20
2017-12-03T17:18:29.508Z,-0.10
2017-12-03T17:20:57.215Z,-0.20
2017-12-03T17:23:24.851Z,-0.20
2017-12-03T17:25:52.458Z,-0.10
2017-12-03T17:28:20.824Z,-0.20
2017-12-03T17:30:49.233Z,-0.30
2017-12-03T17:33:16.796Z,-0.30
2017-12-03T17:35:44.397Z,-0.10
2017-12-03T17:38:12.000Z,-0.10
2017-12-03T17:40:45.813Z,-0.10
2017-12-03T17:43:14.279Z,-0.10
2017-12-03T17:45:41.853Z,-0.10
2017-12-03T17:48:09.457Z,-0.10
2017-12-03T17:50:37.015Z,-0.10
2017-12-03T17:53:04.625Z,0.00
2017-12-03T17:55:32.208Z,-0.20
2017-12-03T17:57:59.776Z,-0.10
2017-12-03T18:00:27.407Z,-0.20
2017-12-03T18:02:54.991Z,-0.10
2017-12-03T18:05:22.568Z,-0.30
2017-12-03T18:07:50.174Z,-0.20
2017-12-03T18:10:17.773Z,-0.30
2017-12-03T18:12:45.367Z,-0.30
2017-12-03T18:15:13.723Z,-0.30
2017-12-03T18:17:41.343Z,-0.40
2017-12-03T18:20:09.080Z,-0.30
2017-12-03T18:22:37.423Z,-0.30
2017-12-03T18:25:05.024Z,-0.30
2017-12-03T18:27:32.603Z,-0.30
2017-12-03T18:30:00.288Z,-0.30
2017-12-03T18:32:27.991Z,-0.30
2017-12-03T18:34:56.370Z,-0.30
2017-12-03T18:37:24.754Z,-0.30
2017-12-03T18:39:53.083Z,-0.20
2017-12-03T18:42:20.707Z,-0.20
2017-12-03T18:44:48.282Z,-0.20
2017-12-03T18:47:15.888Z,-0.10
2017-12-03T18:49:43.463Z,-0.20
2017-12-03T18:52:11.846Z,-0.20
2017-12-03T18:54:39.640Z,-0.20
2017-12-03T18:57:07.336Z,-0.20
2017-12-03T18:59:34.940Z,-0.20
2017-12-03T19:02:02.518Z,-0.30
2017-12-03T19:04:30.095Z,-0.20
2017-12-03T19:06:57.709Z,-0.20
2017-12-03T19:09:25.292Z,-0.20
2017-12-03T19:11:52.888Z,-0.20
2017-12-03T19:14:20.472Z,-0.20
2017-12-03T19:16:48.876Z,-0.30
2017-12-03T19:19:16.596Z,-0.30
2017-12-03T19:21:44.200Z,-0.20
2017-12-03T19:24:11.819Z,-0.20
2017-12-03T19:26:39.438Z,-0.20
2017-12-03T19:29:07.012Z,-0.20
2017-12-03T19:31:34.624Z,-0.20
2017-12-03T19:34:02.220Z,-0.20
2017-12-03T19:36:29.856Z,-0.10
2017-12-03T19:38:57.487Z,-0.20
2017-12-03T19:41:25.933Z,-0.10
2017-12-03T19:43:53.659Z,-0.10
2017-12-03T19:46:21.276Z,-0.10
2017-12-03T19:48:48.881Z,-0.20
2017-12-03T19:51:16.492Z,-0.10
2017-12-03T19:53:44.206Z,-0.10
2017-12-03T19:56:11.859Z,-0.10
2017-12-03T19:58:39.471Z,-0.10
2017-12-03T20:01:07.074Z,-0.10
2017-12-03T20:03:34.713Z,-0.10
2017-12-03T20:06:03.248Z,-0.10
2017-12-03T20:08:30.851Z,-0.10
2017-12-03T20:10:59.389Z,0.10
2017-12-03T20:13:26.984Z,0.00
2017-12-03T20:15:55.459Z,0.00
2017-12-03T20:18:23.818Z,0.00
2017-12-03T20:20:51.411Z,0.00
2017-12-03T20:23:19.755Z,-0.10
2017-12-03T20:25:47.383Z,-0.10
2017-12-03T20:28:14.955Z,-0.10
2017-12-03T20:30:42.590Z,-0.10
2017-12-03T20:33:10.658Z,-0.10
2017-12-03T20:35:39.047Z,-0.10
2017-12-03T20:38:06.651Z,-0.10
2017-12-03T20:40:34.244Z,-0.10
2017-12-03T20:43:01.880Z,0.00
2017-12-03T20:45:30.288Z,0.00
2017-12-03T20:47:58.036Z,0.00
2017-12-03T20:50:26.368Z,0.10
2017-12-03T20:52:53.968Z,0.00
2017-12-03T20:55:22.343Z,0.10
2017-12-03T20:57:50.753Z,0.10
2017-12-03T21:00:18.511Z,0.10
2017-12-03T21:02:46.124Z,0.10
2017-12-03T21:05:13.716Z,0.10
2017-12-03T21:07:41.312Z,0.10
2017-12-03T21:10:08.925Z,0.20
2017-12-03T21:12:36.505Z,0.10
2017-12-03T21:15:04.103Z,0.10
2017-12-03T21:17:31.801Z,0.10
2017-12-03T21:20:00.211Z,0.00
2017-12-03T21:22:27.785Z,-0.10
2017-12-03T21:24:55.428Z,0.00
2017-12-03T21:27:23.186Z,-0.10
2017-12-03T21:29:50.828Z,-0.20
2017-12-03T21:32:18.438Z,-0.10
2017-12-03T21:34:46.006Z,-0.10
2017-12-03T21:37:13.687Z,-0.20
2017-12-03T21:39:42.065Z,-0.10
2017-12-03T21:42:09.703Z,-0.10
2017-12-03T21:44:37.288Z,0.00
2017-12-03T21:47:05.734Z,0.00
2017-12-03T21:49:33.342Z,0.00
2017-12-03T21:52:00.904Z,0.20
2017-12-03T21:54:28.492Z,0.20
2017-12-03T21:56:56.089Z,0.10
2017-12-03T21:59:24.511Z,0.00
2017-12-03T22:01:52.111Z,0.00
2017-12-03T22:04:19.732Z,0.00
2017-12-03T22:06:47.416Z,0.10
2017-12-03T22:09:14.987Z,0.00
2017-12-03T22:11:42.559Z,0.10
2017-12-03T22:14:10.168Z,0.10
2017-12-03T22:16:37.749Z,0.10
2017-12-03T22:19:05.356Z,0.10
2017-12-03T22:21:33.766Z,0.20
2017-12-03T22:24:01.368Z,0.20
2017-12-03T22:26:28.981Z,0.10
2017-12-03T22:28:56.546Z,0.20
2017-12-03T22:31:24.131Z,0.30
2017-12-03T22:33:51.724Z,0.40
2017-12-03T22:36:20.099Z,0.40
2017-12-03T22:38:48.488Z,0.40
2017-12-03T22:41:16.951Z,0.30
2017-12-03T22:43:44.608Z,0.30
2017-12-03T22:46:12.176Z,0.30
2017-12-03T22:48:40.546Z,0.30
2017-12-03T22:51:08.155Z,0.30
2017-12-03T22:53:35.710Z,0.40
2017-12-03T22:56:03.270Z,0.40
2017-12-03T22:58:30.938Z,0.40
2017-12-03T23:00:58.508Z,0.40
2017-12-03T23:03:26.107Z,0.30
2017-12-03T23:05:54.436Z,0.20
2017-12-03T23:08:22.002Z,0.20
2017-12-03T23:10:49.667Z,0.30
2017-12-03T23:13:17.239Z,0.20
2017-12-03T23:15:44.843Z,0.30
2017-12-03T23:18:12.518Z,0.20
2017-12-03T23:20:40.123Z,0.20
2017-12-03T23:23:07.686Z,0.20
2017-12-03T23:25:35.375Z,0.30
2017-12-03T23:28:03.727Z,0.40
2017-12-03T23:30:31.287Z,0.30
2017-12-03T23:32:58.884Z,0.30
2017-12-03T23:35:26.552Z,0.40
2017-12-03T23:37:54.109Z,0.40
2017-12-03T23:40:21.669Z,0.50
2017-12-03T23:42:49.235Z,0.40
2017-12-03T23:45:16.845Z,0.40
2017-12-03T23:47:44.401Z,0.40
2017-12-03T23:50:12.004Z,0.40
2017-12-03T23:52:39.562Z,2.00
2017-12-03T23:55:07.141Z,0.40
2017-12-03T23:57:34.726Z,0.30
